sensor_id;sensor_type;location;lat;lon;timestamp;P1;durP1;ratioP1;P2;durP2;ratioP2
67191;SDS011;54120;53.504;49.426;2024-03-08T04:37:31;218.07;;;205.77;;
67191;SDS011;54120;53.504;49.426;2024-03-08T04:39:57;38.30;;;35.63;;
67191;SDS011;54120;53.504;49.426;2024-03-08T04:42:24;18.13;;;16.67;;
67191;SDS011;54120;53.504;49.426;2024-03-08T04:44:51;15.95;;;14.30;;
67191;SDS011;54120;53.504;49.426;2024-03-08T04:47:19;7.57;;;5.13;;
67191;SDS011;54120;53.504;49.426;2024-03-08T04:49:45;8.73;;;6.32;;
67191;SDS011;54120;53.504;49.426;2024-03-08T04:52:12;8.68;;;5.43;;
67191;SDS011;54120;53.504;49.426;2024-03-08T04:54:38;7.72;;;5.60;;
67191;SDS011;54120;53.504;49.426;2024-03-08T04:57:04;9.00;;;5.30;;
67191;SDS011;54120;53.504;49.426;2024-03-08T04:59:30;8.48;;;5.72;;
67191;SDS011;54120;53.504;49.426;2024-03-08T05:01:56;7.82;;;5.47;;
67191;SDS011;54120;53.504;49.426;2024-03-08T05:04:26;5.97;;;4.70;;
67191;SDS011;54120;53.504;49.426;2024-03-08T05:06:52;7.40;;;5.40;;
67191;SDS011;54120;53.504;49.426;2024-03-08T05:09:19;5.88;;;5.07;;
67191;SDS011;54120;53.504;49.426;2024-03-08T05:11:45;6.38;;;5.10;;
67191;SDS011;54120;53.504;49.426;2024-03-08T05:14:15;5.95;;;5.32;;
67191;SDS011;54120;53.504;49.426;2024-03-08T05:16:46;5.95;;;5.00;;
67191;SDS011;54120;53.504;49.426;2024-03-08T05:19:16;6.70;;;5.00;;
67191;SDS011;54120;53.504;49.426;2024-03-08T05:21:43;5.80;;;4.65;;
67191;SDS011;54120;53.504;49.426;2024-03-08T05:24:10;5.95;;;4.85;;
67191;SDS011;54120;53.504;49.426;2024-03-08T05:26:36;6.72;;;4.60;;
67191;SDS011;54120;53.504;49.426;2024-03-08T05:29:05;6.28;;;4.85;;
67191;SDS011;54120;53.504;49.426;2024-03-08T05:31:45;7.85;;;5.18;;
67191;SDS011;54120;53.504;49.426;2024-03-08T05:34:18;8.40;;;5.18;;
67191;SDS011;54120;53.504;49.426;2024-03-08T05:36:47;6.30;;;5.00;;
67191;SDS011;54120;53.504;49.426;2024-03-08T05:39:15;7.88;;;5.03;;
67191;SDS011;54120;53.504;49.426;2024-03-08T05:41:42;11.15;;;5.25;;
67191;SDS011;54120;53.504;49.426;2024-03-08T05:44:09;7.55;;;4.65;;
67191;SDS011;54120;53.504;49.426;2024-03-08T05:46:36;7.22;;;4.82;;
67191;SDS011;54120;53.504;49.426;2024-03-08T05:49:03;7.68;;;4.90;;
67191;SDS011;54120;53.504;49.426;2024-03-08T05:51:34;6.78;;;4.78;;
67191;SDS011;54120;53.504;49.426;2024-03-08T05:54:01;5.82;;;4.78;;
67191;SDS011;54120;53.504;49.426;2024-03-08T05:56:36;5.95;;;4.65;;
67191;SDS011;54120;53.504;49.426;2024-03-08T05:59:03;7.15;;;4.97;;
67191;SDS011;54120;53.504;49.426;2024-03-08T06:01:29;5.95;;;4.65;;
67191;SDS011;54120;53.504;49.426;2024-03-08T06:04:01;6.82;;;4.63;;
67191;SDS011;54120;53.504;49.426;2024-03-08T06:06:28;6.43;;;5.07;;
67191;SDS011;54120;53.504;49.426;2024-03-08T06:08:55;6.28;;;4.63;;
67191;SDS011;54120;53.504;49.426;2024-03-08T06:11:24;7.78;;;4.63;;
67191;SDS011;54120;53.504;49.426;2024-03-08T06:13:55;4.88;;;4.38;;
67191;SDS011;54120;53.504;49.426;2024-03-08T06:16:28;5.78;;;4.88;;
67191;SDS011;54120;53.504;49.426;2024-03-08T06:18:57;6.97;;;4.82;;
67191;SDS011;54120;53.504;49.426;2024-03-08T06:21:24;6.88;;;4.70;;
67191;SDS011;54120;53.504;49.426;2024-03-08T06:23:54;7.65;;;4.63;;
67191;SDS011;54120;53.504;49.426;2024-03-08T06:26:23;8.15;;;4.90;;
67191;SDS011;54120;53.504;49.426;2024-03-08T06:28:50;9.20;;;6.13;;
67191;SDS011;54120;53.504;49.426;2024-03-08T06:31:16;8.52;;;6.80;;
67191;SDS011;54120;53.504;49.426;2024-03-08T06:33:42;8.63;;;5.78;;
67191;SDS011;54120;53.504;49.426;2024-03-08T06:36:09;10.90;;;5.35;;
67191;SDS011;54120;53.504;49.426;2024-03-08T06:38:37;5.22;;;4.72;;
67191;SDS011;54120;53.504;49.426;2024-03-08T06:41:09;8.88;;;7.22;;
67191;SDS011;54120;53.504;49.426;2024-03-08T06:43:41;8.48;;;5.60;;
67191;SDS011;54120;53.504;49.426;2024-03-08T06:46:11;10.10;;;7.70;;
67191;SDS011;54120;53.504;49.426;2024-03-08T06:48:38;6.43;;;5.72;;
67191;SDS011;54120;53.504;49.426;2024-03-08T06:51:05;10.90;;;5.63;;
67191;SDS011;54120;53.504;49.426;2024-03-08T06:53:31;5.50;;;4.63;;
67191;SDS011;54120;53.504;49.426;2024-03-08T06:55:57;5.75;;;4.15;;
67191;SDS011;54120;53.504;49.426;2024-03-08T06:58:24;9.32;;;4.70;;
67191;SDS011;54120;53.504;49.426;2024-03-08T07:00:50;5.97;;;4.10;;
67191;SDS011;54120;53.504;49.426;2024-03-08T07:03:17;9.27;;;4.88;;
67191;SDS011;54120;53.504;49.426;2024-03-08T07:05:44;7.00;;;4.90;;
67191;SDS011;54120;53.504;49.426;2024-03-08T07:08:10;12.15;;;4.78;;
67191;SDS011;54120;53.504;49.426;2024-03-08T07:10:39;7.18;;;4.80;;
67191;SDS011;54120;53.504;49.426;2024-03-08T07:13:10;7.95;;;4.50;;
67191;SDS011;54120;53.504;49.426;2024-03-08T07:15:37;12.82;;;5.38;;
67191;SDS011;54120;53.504;49.426;2024-03-08T07:18:03;7.20;;;4.90;;
67191;SDS011;54120;53.504;49.426;2024-03-08T07:20:29;8.93;;;4.30;;
67191;SDS011;54120;53.504;49.426;2024-03-08T07:22:55;6.85;;;4.65;;
67191;SDS011;54120;53.504;49.426;2024-03-08T07:25:21;5.22;;;4.57;;
67191;SDS011;54120;53.504;49.426;2024-03-08T07:27:52;6.97;;;5.03;;
67191;SDS011;54120;53.504;49.426;2024-03-08T07:30:20;7.13;;;4.70;;
67191;SDS011;54120;53.504;49.426;2024-03-08T07:33:06;9.90;;;7.55;;
67191;SDS011;54120;53.504;49.426;2024-03-08T07:35:33;12.93;;;5.10;;
67191;SDS011;54120;53.504;49.426;2024-03-08T07:38:09;9.52;;;5.13;;
67191;SDS011;54120;53.504;49.426;2024-03-08T07:40:39;10.00;;;5.70;;
67191;SDS011;54120;53.504;49.426;2024-03-08T07:43:12;7.75;;;5.72;;
67191;SDS011;54120;53.504;49.426;2024-03-08T07:45:38;9.98;;;5.50;;
67191;SDS011;54120;53.504;49.426;2024-03-08T07:48:05;7.63;;;5.90;;
67191;SDS011;54120;53.504;49.426;2024-03-08T07:50:38;9.40;;;5.95;;
67191;SDS011;54120;53.504;49.426;2024-03-08T07:53:08;8.27;;;5.47;;
67191;SDS011;54120;53.504;49.426;2024-03-08T07:55:35;11.20;;;5.63;;
67191;SDS011;54120;53.504;49.426;2024-03-08T07:58:02;6.50;;;5.22;;
67191;SDS011;54120;53.504;49.426;2024-03-08T08:00:31;7.70;;;5.13;;
67191;SDS011;54120;53.504;49.426;2024-03-08T08:02:58;10.82;;;5.72;;
67191;SDS011;54120;53.504;49.426;2024-03-08T08:05:24;8.13;;;6.75;;
67191;SDS011;54120;53.504;49.426;2024-03-08T08:07:51;8.43;;;5.57;;
67191;SDS011;54120;53.504;49.426;2024-03-08T08:10:18;9.85;;;6.40;;
67191;SDS011;54120;53.504;49.426;2024-03-08T08:12:50;7.78;;;4.93;;
67191;SDS011;54120;53.504;49.426;2024-03-08T08:15:19;9.05;;;5.43;;
67191;SDS011;54120;53.504;49.426;2024-03-08T08:17:46;7.70;;;5.35;;
67191;SDS011;54120;53.504;49.426;2024-03-08T08:20:15;7.30;;;6.60;;
67191;SDS011;54120;53.504;49.426;2024-03-08T08:22:41;108.20;;;68.90;;
67191;SDS011;54120;53.504;49.426;2024-03-08T08:25:11;6.40;;;4.63;;
67191;SDS011;54120;53.504;49.426;2024-03-08T08:30:12;11.40;;;6.97;;
67191;SDS011;54120;53.504;49.426;2024-03-08T08:32:39;10.70;;;6.32;;
67191;SDS011;54120;53.504;49.426;2024-03-08T08:35:06;7.88;;;5.18;;
67191;SDS011;54120;53.504;49.426;2024-03-08T08:37:33;8.85;;;5.25;;
67191;SDS011;54120;53.504;49.426;2024-03-08T08:40:02;7.40;;;5.22;;
67191;SDS011;54120;53.504;49.426;2024-03-08T08:42:35;6.97;;;5.55;;
67191;SDS011;54120;53.504;49.426;2024-03-08T08:45:03;7.70;;;6.07;;
67191;SDS011;54120;53.504;49.426;2024-03-08T08:47:34;8.15;;;5.50;;
67191;SDS011;54120;53.504;49.426;2024-03-08T08:50:03;7.38;;;5.78;;
67191;SDS011;54120;53.504;49.426;2024-03-08T08:52:31;12.80;;;7.65;;
67191;SDS011;54120;53.504;49.426;2024-03-08T08:55:00;11.30;;;6.57;;
67191;SDS011;54120;53.504;49.426;2024-03-08T08:57:29;6.82;;;5.10;;
67191;SDS011;54120;53.504;49.426;2024-03-08T08:59:58;8.82;;;5.18;;
67191;SDS011;54120;53.504;49.426;2024-03-08T09:02:26;7.95;;;5.18;;
67191;SDS011;54120;53.504;49.426;2024-03-08T09:04:53;10.30;;;5.63;;
67191;SDS011;54120;53.504;49.426;2024-03-08T09:07:19;8.00;;;6.35;;
67191;SDS011;54120;53.504;49.426;2024-03-08T09:09:45;6.15;;;5.22;;
67191;SDS011;54120;53.504;49.426;2024-03-08T09:12:11;8.00;;;6.15;;
67191;SDS011;54120;53.504;49.426;2024-03-08T09:14:41;7.57;;;6.15;;
67191;SDS011;54120;53.504;49.426;2024-03-08T09:17:08;10.18;;;7.50;;
67191;SDS011;54120;53.504;49.426;2024-03-08T09:19:34;7.43;;;6.05;;
67191;SDS011;54120;53.504;49.426;2024-03-08T09:22:02;8.93;;;5.70;;
67191;SDS011;54120;53.504;49.426;2024-03-08T09:24:30;7.97;;;7.18;;
67191;SDS011;54120;53.504;49.426;2024-03-08T09:26:56;8.55;;;6.63;;
67191;SDS011;54120;53.504;49.426;2024-03-08T09:29:24;9.43;;;5.72;;
67191;SDS011;54120;53.504;49.426;2024-03-08T09:31:50;7.07;;;6.30;;
67191;SDS011;54120;53.504;49.426;2024-03-08T09:34:17;10.88;;;6.55;;
67191;SDS011;54120;53.504;49.426;2024-03-08T09:36:44;10.25;;;8.43;;
67191;SDS011;54120;53.504;49.426;2024-03-08T09:39:10;8.70;;;6.57;;
67191;SDS011;54120;53.504;49.426;2024-03-08T09:41:44;13.23;;;9.32;;
67191;SDS011;54120;53.504;49.426;2024-03-08T09:44:14;13.13;;;7.20;;
67191;SDS011;54120;53.504;49.426;2024-03-08T09:46:41;10.65;;;6.72;;
67191;SDS011;54120;53.504;49.426;2024-03-08T09:49:08;15.25;;;13.77;;
67191;SDS011;54120;53.504;49.426;2024-03-08T09:51:34;8.07;;;6.47;;
67191;SDS011;54120;53.504;49.426;2024-03-08T09:54:01;9.57;;;8.25;;
67191;SDS011;54120;53.504;49.426;2024-03-08T09:56:32;9.20;;;6.80;;
67191;SDS011;54120;53.504;49.426;2024-03-08T09:58:59;17.20;;;15.80;;
67191;SDS011;54120;53.504;49.426;2024-03-08T10:01:31;8.48;;;7.00;;
67191;SDS011;54120;53.504;49.426;2024-03-08T10:03:57;10.18;;;6.72;;
67191;SDS011;54120;53.504;49.426;2024-03-08T10:06:23;9.18;;;7.13;;
67191;SDS011;54120;53.504;49.426;2024-03-08T10:08:50;9.35;;;7.07;;
67191;SDS011;54120;53.504;49.426;2024-03-08T10:11:20;9.40;;;7.20;;
67191;SDS011;54120;53.504;49.426;2024-03-08T10:13:49;9.52;;;5.78;;
67191;SDS011;54120;53.504;49.426;2024-03-08T10:16:16;9.73;;;6.35;;
67191;SDS011;54120;53.504;49.426;2024-03-08T10:18:45;8.15;;;6.30;;
67191;SDS011;54120;53.504;49.426;2024-03-08T10:21:12;8.77;;;7.72;;
67191;SDS011;54120;53.504;49.426;2024-03-08T10:23:39;9.93;;;7.35;;
67191;SDS011;54120;53.504;49.426;2024-03-08T10:26:09;8.07;;;6.68;;
67191;SDS011;54120;53.504;49.426;2024-03-08T10:28:36;8.32;;;7.47;;
67191;SDS011;54120;53.504;49.426;2024-03-08T10:31:03;8.57;;;7.53;;
67191;SDS011;54120;53.504;49.426;2024-03-08T10:33:31;12.88;;;10.55;;
67191;SDS011;54120;53.504;49.426;2024-03-08T10:35:59;9.80;;;8.80;;
67191;SDS011;54120;53.504;49.426;2024-03-08T10:38:25;11.05;;;8.75;;
67191;SDS011;54120;53.504;49.426;2024-03-08T10:40:53;11.93;;;10.77;;
67191;SDS011;54120;53.504;49.426;2024-03-08T10:43:24;8.82;;;7.32;;
67191;SDS011;54120;53.504;49.426;2024-03-08T10:48:44;12.98;;;11.70;;
67191;SDS011;54120;53.504;49.426;2024-03-08T10:51:13;10.88;;;7.85;;
67191;SDS011;54120;53.504;49.426;2024-03-08T10:53:41;9.45;;;7.85;;
67191;SDS011;54120;53.504;49.426;2024-03-08T10:56:09;10.50;;;9.48;;
67191;SDS011;54120;53.504;49.426;2024-03-08T10:58:35;9.13;;;8.18;;
67191;SDS011;54120;53.504;49.426;2024-03-08T11:01:02;12.48;;;11.38;;
67191;SDS011;54120;53.504;49.426;2024-03-08T11:06:15;23.98;;;22.13;;
67191;SDS011;54120;53.504;49.426;2024-03-08T11:08:43;18.30;;;14.75;;
67191;SDS011;54120;53.504;49.426;2024-03-08T11:11:32;25.60;;;23.05;;
67191;SDS011;54120;53.504;49.426;2024-03-08T11:13:58;48.80;;;44.22;;
67191;SDS011;54120;53.504;49.426;2024-03-08T11:18:53;14.10;;;10.50;;
67191;SDS011;54120;53.504;49.426;2024-03-08T11:21:20;30.42;;;27.95;;
67191;SDS011;54120;53.504;49.426;2024-03-08T11:23:59;23.05;;;21.13;;
67191;SDS011;54120;53.504;49.426;2024-03-08T11:26:27;19.92;;;17.42;;
67191;SDS011;54120;53.504;49.426;2024-03-08T11:34:53;28.77;;;26.42;;
67191;SDS011;54120;53.504;49.426;2024-03-08T11:37:20;31.73;;;24.52;;
67191;SDS011;54120;53.504;49.426;2024-03-08T11:39:47;16.83;;;13.10;;
67191;SDS011;54120;53.504;49.426;2024-03-08T11:42:15;17.02;;;14.65;;
67191;SDS011;54120;53.504;49.426;2024-03-08T11:44:43;24.02;;;21.60;;
67191;SDS011;54120;53.504;49.426;2024-03-08T11:47:10;9.93;;;8.48;;
67191;SDS011;54120;53.504;49.426;2024-03-08T11:49:37;12.80;;;10.20;;
67191;SDS011;54120;53.504;49.426;2024-03-08T11:52:04;16.42;;;14.82;;
67191;SDS011;54120;53.504;49.426;2024-03-08T11:54:31;8.98;;;6.97;;
67191;SDS011;54120;53.504;49.426;2024-03-08T11:56:59;12.85;;;7.88;;
67191;SDS011;54120;53.504;49.426;2024-03-08T11:59:27;8.40;;;6.13;;
67191;SDS011;54120;53.504;49.426;2024-03-08T12:02:01;7.15;;;6.22;;
67191;SDS011;54120;53.504;49.426;2024-03-08T12:04:32;11.05;;;7.53;;
67191;SDS011;54120;53.504;49.426;2024-03-08T12:07:01;7.63;;;6.82;;
67191;SDS011;54120;53.504;49.426;2024-03-08T12:09:34;12.60;;;9.18;;
67191;SDS011;54120;53.504;49.426;2024-03-08T12:12:02;8.48;;;6.55;;
67191;SDS011;54120;53.504;49.426;2024-03-08T12:14:30;11.52;;;9.77;;
67191;SDS011;54120;53.504;49.426;2024-03-08T12:16:57;10.48;;;6.93;;
67191;SDS011;54120;53.504;49.426;2024-03-08T12:19:23;15.68;;;8.45;;
67191;SDS011;54120;53.504;49.426;2024-03-08T12:21:50;8.05;;;6.55;;
67191;SDS011;54120;53.504;49.426;2024-03-08T12:24:17;17.13;;;15.80;;
67191;SDS011;54120;53.504;49.426;2024-03-08T12:26:47;19.05;;;17.30;;
67191;SDS011;54120;53.504;49.426;2024-03-08T12:29:32;10.73;;;9.63;;
67191;SDS011;54120;53.504;49.426;2024-03-08T12:31:58;31.08;;;28.55;;
67191;SDS011;54120;53.504;49.426;2024-03-08T12:34:26;27.95;;;25.75;;
67191;SDS011;54120;53.504;49.426;2024-03-08T12:36:54;15.63;;;9.73;;
67191;SDS011;54120;53.504;49.426;2024-03-08T12:39:21;12.20;;;9.77;;
67191;SDS011;54120;53.504;49.426;2024-03-08T12:41:48;23.92;;;21.95;;
67191;SDS011;54120;53.504;49.426;2024-03-08T12:44:17;27.90;;;25.70;;
67191;SDS011;54120;53.504;49.426;2024-03-08T12:46:44;18.33;;;16.58;;
67191;SDS011;54120;53.504;49.426;2024-03-08T12:49:11;12.00;;;10.90;;
67191;SDS011;54120;53.504;49.426;2024-03-08T12:51:38;14.40;;;8.07;;
67191;SDS011;54120;53.504;49.426;2024-03-08T12:54:05;18.83;;;16.88;;
67191;SDS011;54120;53.504;49.426;2024-03-08T12:56:33;14.77;;;13.38;;
67191;SDS011;54120;53.504;49.426;2024-03-08T12:59:01;29.48;;;27.20;;
67191;SDS011;54120;53.504;49.426;2024-03-08T13:01:28;24.20;;;22.15;;
67191;SDS011;54120;53.504;49.426;2024-03-08T13:03:55;11.32;;;6.93;;
67191;SDS011;54120;53.504;49.426;2024-03-08T13:06:21;10.18;;;8.55;;
67191;SDS011;54120;53.504;49.426;2024-03-08T13:08:53;30.50;;;28.33;;
67191;SDS011;54120;53.504;49.426;2024-03-08T13:11:19;25.65;;;23.45;;
67191;SDS011;54120;53.504;49.426;2024-03-08T13:13:45;17.27;;;15.73;;
67191;SDS011;54120;53.504;49.426;2024-03-08T13:16:12;9.65;;;6.25;;
67191;SDS011;54120;53.504;49.426;2024-03-08T13:18:42;9.85;;;6.32;;
67191;SDS011;54120;53.504;49.426;2024-03-08T13:21:11;11.45;;;10.15;;
67191;SDS011;54120;53.504;49.426;2024-03-08T13:23:42;9.30;;;7.90;;
67191;SDS011;54120;53.504;49.426;2024-03-08T13:26:13;12.52;;;9.45;;
67191;SDS011;54120;53.504;49.426;2024-03-08T13:28:45;10.57;;;6.88;;
67191;SDS011;54120;53.504;49.426;2024-03-08T13:31:11;10.50;;;8.10;;
67191;SDS011;54120;53.504;49.426;2024-03-08T13:33:37;10.70;;;6.60;;
67191;SDS011;54120;53.504;49.426;2024-03-08T13:36:12;10.60;;;8.82;;
67191;SDS011;54120;53.504;49.426;2024-03-08T13:38:45;13.10;;;9.27;;
67191;SDS011;54120;53.504;49.426;2024-03-08T13:41:13;13.43;;;10.98;;
67191;SDS011;54120;53.504;49.426;2024-03-08T13:43:42;12.93;;;11.43;;
67191;SDS011;54120;53.504;49.426;2024-03-08T13:46:12;11.02;;;6.68;;
67191;SDS011;54120;53.504;49.426;2024-03-08T13:48:38;14.73;;;9.75;;
67191;SDS011;54120;53.504;49.426;2024-03-08T13:51:04;19.30;;;9.32;;
67191;SDS011;54120;53.504;49.426;2024-03-08T13:53:36;12.27;;;7.15;;
67191;SDS011;54120;53.504;49.426;2024-03-08T13:56:02;13.63;;;8.70;;
67191;SDS011;54120;53.504;49.426;2024-03-08T13:58:28;10.75;;;7.85;;
67191;SDS011;54120;53.504;49.426;2024-03-08T14:00:54;11.77;;;8.18;;
67191;SDS011;54120;53.504;49.426;2024-03-08T14:03:21;13.35;;;11.68;;
67191;SDS011;54120;53.504;49.426;2024-03-08T14:05:49;14.23;;;10.50;;
67191;SDS011;54120;53.504;49.426;2024-03-08T14:08:15;11.80;;;7.85;;
67191;SDS011;54120;53.504;49.426;2024-03-08T14:10:42;24.52;;;22.23;;
67191;SDS011;54120;53.504;49.426;2024-03-08T14:13:12;50.30;;;46.78;;
67191;SDS011;54120;53.504;49.426;2024-03-08T14:15:40;68.10;;;63.67;;
67191;SDS011;54120;53.504;49.426;2024-03-08T14:18:07;23.75;;;21.88;;
67191;SDS011;54120;53.504;49.426;2024-03-08T14:20:34;39.53;;;36.53;;
67191;SDS011;54120;53.504;49.426;2024-03-08T14:23:00;14.40;;;9.77;;
67191;SDS011;54120;53.504;49.426;2024-03-08T14:25:26;27.52;;;16.23;;
67191;SDS011;54120;53.504;49.426;2024-03-08T14:27:55;14.98;;;9.75;;
67191;SDS011;54120;53.504;49.426;2024-03-08T14:30:27;17.25;;;15.57;;
67191;SDS011;54120;53.504;49.426;2024-03-08T14:35:34;17.90;;;16.00;;
67191;SDS011;54120;53.504;49.426;2024-03-08T14:38:02;16.17;;;14.48;;
67191;SDS011;54120;53.504;49.426;2024-03-08T14:40:28;15.60;;;14.02;;
67191;SDS011;54120;53.504;49.426;2024-03-08T14:42:56;13.02;;;11.18;;
67191;SDS011;54120;53.504;49.426;2024-03-08T14:45:22;18.35;;;16.13;;
67191;SDS011;54120;53.504;49.426;2024-03-08T14:47:49;16.17;;;14.45;;
67191;SDS011;54120;53.504;49.426;2024-03-08T14:50:19;19.50;;;11.68;;
67191;SDS011;54120;53.504;49.426;2024-03-08T14:52:48;14.45;;;9.38;;
67191;SDS011;54120;53.504;49.426;2024-03-08T14:55:14;15.55;;;10.15;;
67191;SDS011;54120;53.504;49.426;2024-03-08T14:57:44;14.63;;;10.07;;
67191;SDS011;54120;53.504;49.426;2024-03-08T15:00:11;13.95;;;9.18;;
67191;SDS011;54120;53.504;49.426;2024-03-08T15:02:42;16.88;;;10.27;;
67191;SDS011;54120;53.504;49.426;2024-03-08T15:05:09;13.65;;;9.98;;
67191;SDS011;54120;53.504;49.426;2024-03-08T15:07:40;19.38;;;16.05;;
67191;SDS011;54120;53.504;49.426;2024-03-08T15:10:08;19.00;;;16.92;;
67191;SDS011;54120;53.504;49.426;2024-03-08T15:12:40;18.25;;;10.75;;
67191;SDS011;54120;53.504;49.426;2024-03-08T15:15:07;15.05;;;8.93;;
67191;SDS011;54120;53.504;49.426;2024-03-08T15:17:36;23.10;;;20.25;;
67191;SDS011;54120;53.504;49.426;2024-03-08T15:20:08;17.70;;;14.00;;
67191;SDS011;54120;53.504;49.426;2024-03-08T15:22:41;16.38;;;14.70;;
67191;SDS011;54120;53.504;49.426;2024-03-08T15:25:14;33.65;;;30.80;;
67191;SDS011;54120;53.504;49.426;2024-03-08T15:27:46;126.55;;;118.43;;
67191;SDS011;54120;53.504;49.426;2024-03-08T15:30:13;116.78;;;109.65;;
67191;SDS011;54120;53.504;49.426;2024-03-08T15:32:45;134.57;;;126.65;;
67191;SDS011;54120;53.504;49.426;2024-03-08T15:35:22;124.18;;;116.43;;
67191;SDS011;54120;53.504;49.426;2024-03-08T15:37:54;101.22;;;94.55;;
67191;SDS011;54120;53.504;49.426;2024-03-08T15:40:23;74.43;;;69.10;;
67191;SDS011;54120;53.504;49.426;2024-03-08T15:42:56;19.25;;;11.68;;
67191;SDS011;54120;53.504;49.426;2024-03-08T15:45:23;100.93;;;94.65;;
67191;SDS011;54120;53.504;49.426;2024-03-08T15:47:50;91.38;;;85.35;;
67191;SDS011;54120;53.504;49.426;2024-03-08T15:50:16;20.52;;;13.82;;
67191;SDS011;54120;53.504;49.426;2024-03-08T15:52:43;17.30;;;15.43;;
67191;SDS011;54120;53.504;49.426;2024-03-08T15:55:16;76.30;;;71.35;;
67191;SDS011;54120;53.504;49.426;2024-03-08T15:57:50;16.20;;;10.73;;
67191;SDS011;54120;53.504;49.426;2024-03-08T16:00:18;14.77;;;11.02;;
67191;SDS011;54120;53.504;49.426;2024-03-08T16:05:37;14.70;;;8.82;;
67191;SDS011;54120;53.504;49.426;2024-03-08T16:08:07;16.75;;;14.18;;
67191;SDS011;54120;53.504;49.426;2024-03-08T16:10:44;22.38;;;17.60;;
67191;SDS011;54120;53.504;49.426;2024-03-08T16:13:17;15.00;;;12.32;;
67191;SDS011;54120;53.504;49.426;2024-03-08T16:15:46;30.73;;;27.80;;
67191;SDS011;54120;53.504;49.426;2024-03-08T16:18:16;46.88;;;43.42;;
67191;SDS011;54120;53.504;49.426;2024-03-08T16:20:46;28.35;;;26.05;;
67191;SDS011;54120;53.504;49.426;2024-03-08T16:23:15;118.03;;;110.57;;
67191;SDS011;54120;53.504;49.426;2024-03-08T16:25:42;103.57;;;97.07;;
67191;SDS011;54120;53.504;49.426;2024-03-08T16:28:08;91.32;;;85.63;;
67191;SDS011;54120;53.504;49.426;2024-03-08T16:30:39;104.28;;;97.50;;
67191;SDS011;54120;53.504;49.426;2024-03-08T16:33:08;13.75;;;11.32;;
67191;SDS011;54120;53.504;49.426;2024-03-08T16:35:34;125.25;;;117.85;;
67191;SDS011;54120;53.504;49.426;2024-03-08T16:38:05;11.77;;;8.43;;
67191;SDS011;54120;53.504;49.426;2024-03-08T16:40:32;16.95;;;13.60;;
67191;SDS011;54120;53.504;49.426;2024-03-08T16:42:59;98.38;;;92.20;;
67191;SDS011;54120;53.504;49.426;2024-03-08T16:45:25;109.15;;;102.43;;
67191;SDS011;54120;53.504;49.426;2024-03-08T16:47:51;98.63;;;92.30;;
67191;SDS011;54120;53.504;49.426;2024-03-08T16:50:19;12.43;;;7.97;;
67191;SDS011;54120;53.504;49.426;2024-03-08T16:52:46;12.32;;;8.30;;
67191;SDS011;54120;53.504;49.426;2024-03-08T16:55:12;60.95;;;56.83;;
67191;SDS011;54120;53.504;49.426;2024-03-08T16:57:44;16.75;;;14.88;;
67191;SDS011;54120;53.504;49.426;2024-03-08T17:00:12;16.40;;;13.75;;
67191;SDS011;54120;53.504;49.426;2024-03-08T17:02:56;11.82;;;7.25;;
67191;SDS011;54120;53.504;49.426;2024-03-08T17:05:27;12.80;;;8.52;;
67191;SDS011;54120;53.504;49.426;2024-03-08T17:07:59;32.30;;;29.85;;
67191;SDS011;54120;53.504;49.426;2024-03-08T17:10:33;18.90;;;17.02;;
67191;SDS011;54120;53.504;49.426;2024-03-08T17:13:00;17.85;;;15.18;;
67191;SDS011;54120;53.504;49.426;2024-03-08T17:15:27;24.25;;;22.05;;
67191;SDS011;54120;53.504;49.426;2024-03-08T17:17:55;27.60;;;25.15;;
67191;SDS011;54120;53.504;49.426;2024-03-08T17:20:31;21.92;;;20.05;;
67191;SDS011;54120;53.504;49.426;2024-03-08T17:22:59;19.85;;;18.08;;
67191;SDS011;54120;53.504;49.426;2024-03-08T17:25:26;38.38;;;35.33;;
67191;SDS011;54120;53.504;49.426;2024-03-08T17:27:53;45.78;;;42.50;;
67191;SDS011;54120;53.504;49.426;2024-03-08T17:30:21;29.90;;;27.25;;
67191;SDS011;54120;53.504;49.426;2024-03-08T17:32:50;38.95;;;35.63;;
67191;SDS011;54120;53.504;49.426;2024-03-08T17:35:24;53.05;;;49.58;;
67191;SDS011;54120;53.504;49.426;2024-03-08T17:37:53;55.67;;;51.75;;
67191;SDS011;54120;53.504;49.426;2024-03-08T17:40:23;59.58;;;55.55;;
67191;SDS011;54120;53.504;49.426;2024-03-08T17:42:58;45.92;;;42.75;;
67191;SDS011;54120;53.504;49.426;2024-03-08T17:45:34;50.75;;;47.38;;
67191;SDS011;54120;53.504;49.426;2024-03-08T17:48:01;45.53;;;42.08;;
67191;SDS011;54120;53.504;49.426;2024-03-08T17:50:29;40.53;;;37.47;;
67191;SDS011;54120;53.504;49.426;2024-03-08T17:52:55;44.20;;;40.78;;
67191;SDS011;54120;53.504;49.426;2024-03-08T17:55:24;34.45;;;31.50;;
67191;SDS011;54120;53.504;49.426;2024-03-08T17:57:51;39.67;;;36.45;;
67191;SDS011;54120;53.504;49.426;2024-03-08T18:00:19;42.70;;;39.40;;
67191;SDS011;54120;53.504;49.426;2024-03-08T18:02:58;33.80;;;31.00;;
67191;SDS011;54120;53.504;49.426;2024-03-08T18:05:25;41.60;;;38.42;;
67191;SDS011;54120;53.504;49.426;2024-03-08T18:07:56;55.65;;;51.67;;
67191;SDS011;54120;53.504;49.426;2024-03-08T18:10:23;43.47;;;40.20;;
67191;SDS011;54120;53.504;49.426;2024-03-08T18:12:51;37.40;;;34.63;;
67191;SDS011;54120;53.504;49.426;2024-03-08T18:15:20;12.52;;;9.68;;
67191;SDS011;54120;53.504;49.426;2024-03-08T18:17:51;42.63;;;39.53;;
67191;SDS011;54120;53.504;49.426;2024-03-08T18:20:19;35.95;;;32.85;;
67191;SDS011;54120;53.504;49.426;2024-03-08T18:22:47;48.80;;;45.28;;
67191;SDS011;54120;53.504;49.426;2024-03-08T18:25:14;66.15;;;61.58;;
67191;SDS011;54120;53.504;49.426;2024-03-08T18:27:44;45.67;;;42.00;;
67191;SDS011;54120;53.504;49.426;2024-03-08T18:30:10;35.40;;;32.58;;
67191;SDS011;54120;53.504;49.426;2024-03-08T18:32:43;40.00;;;36.95;;
67191;SDS011;54120;53.504;49.426;2024-03-08T18:35:13;68.15;;;63.70;;
67191;SDS011;54120;53.504;49.426;2024-03-08T18:37:41;65.82;;;61.45;;
67191;SDS011;54120;53.504;49.426;2024-03-08T18:40:08;69.07;;;64.40;;
67191;SDS011;54120;53.504;49.426;2024-03-08T18:42:37;53.72;;;49.95;;
67191;SDS011;54120;53.504;49.426;2024-03-08T18:45:05;62.55;;;58.38;;
67191;SDS011;54120;53.504;49.426;2024-03-08T18:47:39;70.05;;;65.25;;
67191;SDS011;54120;53.504;49.426;2024-03-08T18:50:10;54.85;;;50.60;;
67191;SDS011;54120;53.504;49.426;2024-03-08T18:52:39;91.63;;;85.95;;
67191;SDS011;54120;53.504;49.426;2024-03-08T18:55:06;72.60;;;67.82;;
67191;SDS011;54120;53.504;49.426;2024-03-08T18:57:37;16.52;;;11.55;;
67191;SDS011;54120;53.504;49.426;2024-03-08T19:02:58;21.35;;;18.30;;
67191;SDS011;54120;53.504;49.426;2024-03-08T19:05:26;14.90;;;10.18;;
67191;SDS011;54120;53.504;49.426;2024-03-08T19:07:57;34.55;;;31.85;;
67191;SDS011;54120;53.504;49.426;2024-03-08T19:10:24;16.17;;;8.35;;
67191;SDS011;54120;53.504;49.426;2024-03-08T19:12:51;20.02;;;17.35;;
67191;SDS011;54120;53.504;49.426;2024-03-08T19:15:19;31.30;;;28.77;;
67191;SDS011;54120;53.504;49.426;2024-03-08T19:17:46;18.98;;;17.02;;
67191;SDS011;54120;53.504;49.426;2024-03-08T19:20:18;16.45;;;10.43;;
67191;SDS011;54120;53.504;49.426;2024-03-08T19:22:50;22.92;;;20.83;;
67191;SDS011;54120;53.504;49.426;2024-03-08T19:25:37;22.88;;;20.75;;
67191;SDS011;54120;53.504;49.426;2024-03-08T19:28:07;17.15;;;14.90;;